Time;durP1;ratioP1;P1;durP2;ratioP2;P2;SDS_P1;SDS_P2;PMS_P1;PMS_P2;Temp;Humidity;BMP_temperature;BMP_pressure;BME280_temperature;BME280_humidity;BME280_pressure;Samples;Min_cycle;Max_cycle;Signal;HPM_P1;HPM_P2
2023/09/04 00:00:50;;;;;;;8.68;5.63;;;;;;;;;;10226089;28;20090;-70
2023/09/04 00:05:42;;;;;;;7.18;6.47;;;;;;;;;;10226241;28;20035;-69
2023/09/04 00:10:34;;;;;;;5.30;4.82;;;;;;;;;;10225787;28;20036;-71
2023/09/04 00:15:26;;;;;;;8.00;5.15;;;;;;;;;;10217890;28;20496;-70
2023/09/04 00:20:18;;;;;;;5.35;4.68;;;;;;;;;;10206190;28;20063;-70
2023/09/04 00:25:10;;;;;;;6.45;5.28;;;;;;;;;;10215048;28;20510;-70
2023/09/04 00:30:02;;;;;;;5.72;4.93;;;;;;;;;;10218268;28;20075;-68
2023/09/04 00:34:54;;;;;;;9.40;5.50;;;;;;;;;;10202170;28;20066;-71
2023/09/04 00:39:46;;;;;;;8.80;6.80;;;;;;;;;;10202081;28;20090;-70
2023/09/04 00:44:38;;;;;;;7.32;6.60;;;;;;;;;;10164145;28;20481;-70
2023/09/04 00:49:30;;;;;;;7.28;6.57;;;;;;;;;;10188255;28;20175;-70
2023/09/04 00:54:23;;;;;;;7.43;5.18;;;;;;;;;;10173672;28;20045;-71
2023/09/04 00:59:15;;;;;;;7.72;5.18;;;;;;;;;;10218849;28;20167;-70
2023/09/04 01:04:07;;;;;;;6.55;5.15;;;;;;;;;;10169977;28;20051;-70
2023/09/04 01:08:59;;;;;;;7.43;4.90;;;;;;;;;;10218816;28;20080;-70
2023/09/04 01:13:52;;;;;;;7.03;5.28;;;;;;;;;;10203736;28;20043;-70
2023/09/04 01:18:44;;;;;;;8.68;5.00;;;;;;;;;;10194438;28;20051;-70
2023/09/04 01:23:36;;;;;;;8.48;5.80;;;;;;;;;;10228466;28;20044;-68
2023/09/04 01:28:34;;;;;;;5.60;5.03;;;;;;;;;;10198837;28;20481;-70
2023/09/04 01:33:30;;;;;;;7.38;5.60;;;;;;;;;;10179769;28;20105;-70
2023/09/04 01:38:22;;;;;;;5.90;5.40;;;;;;;;;;10183256;28;20067;-71
2023/09/04 01:43:14;;;;;;;7.35;6.65;;;;;;;;;;10168894;28;20055;-71
2023/09/04 01:48:06;;;;;;;8.65;7.32;;;;;;;;;;10171060;28;20075;-71
2023/09/04 01:52:59;;;;;;;5.25;4.85;;;;;;;;;;10188217;28;20048;-69
2023/09/04 01:57:51;;;;;;;6.75;6.05;;;;;;;;;;10168237;28;20113;-71
2023/09/04 02:02:43;;;;;;;9.00;5.32;;;;;;;;;;10168315;28;20424;-70
2023/09/04 02:07:35;;;;;;;6.10;5.50;;;;;;;;;;10186781;28;20044;-70
2023/09/04 02:12:27;;;;;;;8.15;6.28;;;;;;;;;;10184928;28;20051;-71
2023/09/04 02:17:19;;;;;;;5.90;5.30;;;;;;;;;;10185934;28;20055;-70
2023/09/04 02:22:11;;;;;;;7.20;6.00;;;;;;;;;;10205622;27;20388;-70
2023/09/04 02:27:04;;;;;;;8.77;6.97;;;;;;;;;;10209512;28;20067;-70
2023/09/04 02:31:56;;;;;;;6.90;5.97;;;;;;;;;;10186872;28;20048;-71
2023/09/04 02:36:48;;;;;;;8.35;6.43;;;;;;;;;;10186767;28;20040;-71
2023/09/04 02:41:40;;;;;;;7.18;6.28;;;;;;;;;;10183670;28;20129;-69
2023/09/04 02:46:32;;;;;;;6.45;5.82;;;;;;;;;;10209447;28;20142;-72
2023/09/04 02:51:24;;;;;;;6.20;5.60;;;;;;;;;;10176498;28;20139;-72
2023/09/04 02:56:16;;;;;;;6.55;5.70;;;;;;;;;;10166114;28;20040;-70
2023/09/04 03:01:07;;;;;;;8.18;6.43;;;;;;;;;;10164960;28;20378;-70
2023/09/04 03:06:09;;;;;;;6.30;5.70;;;;;;;;;;10167368;28;20044;-69
2023/09/04 03:11:09;;;;;;;8.80;5.28;;;;;;;;;;10163719;28;20051;-70
2023/09/04 03:16:01;;;;;;;7.57;5.45;;;;;;;;;;10165435;28;20347;-70
2023/09/04 03:20:55;;;;;;;6.10;4.93;;;;;;;;;;10165449;28;20512;-71
2023/09/04 03:25:47;;;;;;;6.75;5.63;;;;;;;;;;10184088;28;20047;-72
2023/09/04 03:30:39;;;;;;;6.07;5.43;;;;;;;;;;10182265;28;20044;-71
2023/09/04 03:35:33;;;;;;;5.90;4.78;;;;;;;;;;10166776;28;20044;-72
2023/09/04 03:40:26;;;;;;;6.22;5.60;;;;;;;;;;10223561;28;20043;-73
2023/09/04 03:45:18;;;;;;;7.50;5.60;;;;;;;;;;10182801;28;20192;-71
2023/09/04 03:50:11;;;;;;;6.97;5.20;;;;;;;;;;10183716;28;20043;-69
2023/09/04 03:55:06;;;;;;;5.20;4.43;;;;;;;;;;10166947;28;20046;-69
2023/09/04 03:59:58;;;;;;;7.78;5.35;;;;;;;;;;10163685;28;20170;-70
2023/09/04 04:04:53;;;;;;;5.18;4.68;;;;;;;;;;10191461;28;20055;-72
2023/09/04 04:09:47;;;;;;;5.30;4.80;;;;;;;;;;10164957;28;20587;-72
2023/09/04 04:14:39;;;;;;;5.60;4.90;;;;;;;;;;10197579;28;20462;-71
2023/09/04 04:19:31;;;;;;;4.53;4.13;;;;;;;;;;10174117;28;20111;-71
2023/09/04 04:24:27;;;;;;;5.22;4.20;;;;;;;;;;10173072;28;20043;-68
2023/09/04 04:29:19;;;;;;;6.80;5.00;;;;;;;;;;10170515;28;20055;-70
2023/09/04 04:34:11;;;;;;;8.85;5.82;;;;;;;;;;10171284;28;20050;-73
2023/09/04 04:39:03;;;;;;;6.15;5.50;;;;;;;;;;10172462;28;20055;-70
2023/09/04 04:43:55;;;;;;;6.65;5.45;;;;;;;;;;10199186;28;20470;-70
2023/09/04 04:48:48;;;;;;;5.13;4.55;;;;;;;;;;10186417;28;20043;-69
2023/09/04 04:53:40;;;;;;;5.85;5.32;;;;;;;;;;10170303;28;20040;-68
2023/09/04 04:58:36;;;;;;;5.68;5.03;;;;;;;;;;10185399;28;20048;-70
2023/09/04 05:03:28;;;;;;;5.68;5.03;;;;;;;;;;10200196;28;20070;-70
2023/09/04 05:08:22;;;;;;;7.15;5.72;;;;;;;;;;10179743;28;20443;-70
2023/09/04 05:13:16;;;;;;;10.77;5.95;;;;;;;;;;10173835;28;20468;-70
2023/09/04 05:18:08;;;;;;;5.88;5.22;;;;;;;;;;10180978;28;20032;-70
2023/09/04 05:23:04;;;;;;;7.78;5.85;;;;;;;;;;10208423;28;20044;-71
2023/09/04 05:27:55;;;;;;;5.85;5.30;;;;;;;;;;10178619;28;20052;-69
2023/09/04 05:32:52;;;;;;;6.72;6.03;;;;;;;;;;10188506;28;20535;-70
2023/09/04 05:37:44;;;;;;;7.65;5.35;;;;;;;;;;10189321;28;20047;-70
2023/09/04 05:42:36;;;;;;;7.82;7.00;;;;;;;;;;10193275;28;20048;-73
2023/09/04 05:47:28;;;;;;;7.75;6.70;;;;;;;;;;10200125;28;20512;-70
2023/09/04 05:52:20;;;;;;;11.05;6.07;;;;;;;;;;10223634;28;20093;-70
2023/09/04 05:57:12;;;;;;;7.32;5.57;;;;;;;;;;10230261;28;20052;-71
2023/09/04 06:02:04;;;;;;;8.60;5.65;;;;;;;;;;10230239;28;20117;-69
2023/09/04 06:06:56;;;;;;;7.63;5.78;;;;;;;;;;10218282;28;20462;-71
2023/09/04 06:11:47;;;;;;;7.63;6.82;;;;;;;;;;10229901;28;20059;-70
2023/09/04 06:16:39;;;;;;;12.70;11.40;;;;;;;;;;10228061;28;20062;-71
2023/09/04 06:21:31;;;;;;;13.43;12.15;;;;;;;;;;10217317;28;20051;-71
2023/09/04 06:26:23;;;;;;;19.77;17.67;;;;;;;;;;10214319;28;20461;-62
2023/09/04 06:31:15;;;;;;;26.42;23.05;;;;;;;;;;10222232;28;20100;-63
2023/09/04 06:36:07;;;;;;;22.63;20.25;;;;;;;;;;10226948;28;20079;-63
2023/09/04 06:40:59;;;;;;;26.55;19.67;;;;;;;;;;10226280;28;20051;-64
2023/09/04 06:45:51;;;;;;;21.95;19.75;;;;;;;;;;10225683;28;20130;-63
2023/09/04 06:50:43;;;;;;;21.42;17.02;;;;;;;;;;10226383;28;20067;-64
2023/09/04 06:55:35;;;;;;;18.15;16.40;;;;;;;;;;10222722;28;20050;-63
2023/09/04 07:00:27;;;;;;;16.98;15.27;;;;;;;;;;10182035;28;20048;-63
2023/09/04 07:05:19;;;;;;;18.05;16.20;;;;;;;;;;10214256;28;20131;-65
2023/09/04 07:10:11;;;;;;;16.45;14.75;;;;;;;;;;10211145;28;20466;-64
2023/09/04 07:15:04;;;;;;;18.38;15.40;;;;;;;;;;10181276;28;20050;-63
2023/09/04 07:19:56;;;;;;;19.00;17.10;;;;;;;;;;10183538;28;20090;-65
2023/09/04 07:24:48;;;;;;;24.48;18.48;;;;;;;;;;10183614;28;20469;-64
2023/09/04 07:29:39;;;;;;;26.27;17.48;;;;;;;;;;10184119;28;20047;-64
2023/09/04 07:34:31;;;;;;;16.70;14.98;;;;;;;;;;10182327;28;20071;-63
2023/09/04 07:39:27;;;;;;;17.15;15.52;;;;;;;;;;10182027;28;20094;-63
2023/09/04 07:44:18;;;;;;;20.05;18.05;;;;;;;;;;10182036;28;20500;-64
2023/09/04 07:49:12;;;;;;;17.52;13.35;;;;;;;;;;10182314;28;20351;-64
2023/09/04 07:54:04;;;;;;;16.30;14.70;;;;;;;;;;10196091;28;20122;-66
2023/09/04 07:58:56;;;;;;;16.58;14.82;;;;;;;;;;10205707;28;20056;-66
2023/09/04 08:03:47;;;;;;;16.30;14.40;;;;;;;;;;10202854;28;20079;-64
2023/09/04 08:08:40;;;;;;;21.73;19.50;;;;;;;;;;10181637;28;20089;-64
2023/09/04 08:13:31;;;;;;;18.63;16.73;;;;;;;;;;10181052;28;20115;-64
2023/09/04 08:18:23;;;;;;;17.02;13.93;;;;;;;;;;10182097;28;20048;-62
2023/09/04 08:23:15;;;;;;;19.38;11.45;;;;;;;;;;10180413;28;20048;-61
2023/09/04 08:28:07;;;;;;;17.60;11.80;;;;;;;;;;10181173;28;20531;-61
2023/09/04 08:32:59;;;;;;;21.75;13.57;;;;;;;;;;10180454;28;20052;-64
2023/09/04 08:37:51;;;;;;;21.60;13.57;;;;;;;;;;10181325;28;20036;-64
2023/09/04 08:42:44;;;;;;;14.48;10.10;;;;;;;;;;10198222;28;20090;-64
2023/09/04 08:47:39;;;;;;;15.15;10.75;;;;;;;;;;10221409;28;20058;-64
2023/09/04 08:52:31;;;;;;;10.05;9.15;;;;;;;;;;10197737;28;20044;-64
2023/09/04 08:57:24;;;;;;;10.13;8.68;;;;;;;;;;10181005;28;20045;-63
2023/09/04 09:02:16;;;;;;;10.32;9.27;;;;;;;;;;10196911;28;20101;-64
2023/09/04 09:07:10;;;;;;;9.40;8.30;;;;;;;;;;10202798;28;20530;-64
2023/09/04 09:12:02;;;;;;;10.95;8.55;;;;;;;;;;10205443;28;20521;-64
2023/09/04 09:17:03;;;;;;;8.75;7.68;;;;;;;;;;10188902;28;20084;-63
2023/09/04 09:22:08;;;;;;;7.22;5.03;;;;;;;;;;10185264;28;20154;-62
2023/09/04 09:27:00;;;;;;;6.80;6.03;;;;;;;;;;10187514;28;20056;-63
2023/09/04 09:31:53;;;;;;;7.95;5.63;;;;;;;;;;10213040;28;20122;-64
2023/09/04 09:36:45;;;;;;;9.48;5.18;;;;;;;;;;10219388;28;20075;-64
2023/09/04 09:41:37;;;;;;;8.77;4.75;;;;;;;;;;10206060;28;20382;-60
2023/09/04 09:46:29;;;;;;;7.53;4.32;;;;;;;;;;10197445;28;20131;-63
2023/09/04 09:51:21;;;;;;;11.52;4.13;;;;;;;;;;10205160;28;20389;-64
2023/09/04 09:56:14;;;;;;;5.57;5.07;;;;;;;;;;10186101;28;20043;-62
2023/09/04 10:01:07;;;;;;;7.10;4.65;;;;;;;;;;10221408;28;20563;-63
2023/09/04 10:06:02;;;;;;;5.28;3.83;;;;;;;;;;10186646;28;20458;-63
2023/09/04 10:10:55;;;;;;;4.75;3.17;;;;;;;;;;10207231;28;20078;-63
2023/09/04 10:15:49;;;;;;;10.75;3.05;;;;;;;;;;10168223;28;20489;-62
2023/09/04 10:20:41;;;;;;;5.32;3.40;;;;;;;;;;10199816;28;20047;-64
2023/09/04 10:25:41;;;;;;;3.85;3.45;;;;;;;;;;10189161;28;20047;-64
2023/09/04 10:30:36;;;;;;;4.82;2.90;;;;;;;;;;10182699;28;20044;-63
2023/09/04 10:35:28;;;;;;;4.85;3.20;;;;;;;;;;10183841;28;20044;-63
2023/09/04 10:40:20;;;;;;;3.58;3.25;;;;;;;;;;10183305;28;20044;-63
2023/09/04 10:45:13;;;;;;;4.63;2.53;;;;;;;;;;10184264;28;20102;-63
2023/09/04 10:50:25;;;;;;;4.28;3.88;;;;;;;;;;10184888;28;20456;-63
2023/09/04 10:55:17;;;;;;;4.05;3.00;;;;;;;;;;10184693;28;20044;-64
2023/09/04 11:00:10;;;;;;;3.25;2.90;;;;;;;;;;10183253;28;20447;-64
2023/09/04 11:05:03;;;;;;;5.85;3.05;;;;;;;;;;10185852;28;20044;-63
2023/09/04 11:10:32;;;;;;;10.25;2.92;;;;;;;;;;10183597;28;20067;-62
2023/09/04 11:15:26;;;;;;;6.22;2.90;;;;;;;;;;10182193;28;20046;-63
2023/09/04 11:20:24;;;;;;;2.97;2.67;;;;;;;;;;10182180;28;20057;-63
2023/09/04 11:25:16;;;;;;;;;;;;;;;;;;10183051;28;20094;-64
2023/09/04 11:30:08;;;;;;;3.67;2.97;;;;;;;;;;10183659;28;20048;-65
2023/09/04 11:35:00;;;;;;;4.25;2.90;;;;;;;;;;10183116;28;20048;-61
2023/09/04 11:39:54;;;;;;;3.47;2.70;;;;;;;;;;10217468;28;20048;-63
2023/09/04 11:44:51;;;;;;;3.30;3.00;;;;;;;;;;10190132;28;20052;-64
2023/09/04 11:49:43;;;;;;;7.18;2.90;;;;;;;;;;10180497;28;21007;-61
2023/09/04 11:54:38;;;;;;;5.70;2.92;;;;;;;;;;10181054;28;20067;-63
2023/09/04 11:59:37;;;;;;;8.15;3.42;;;;;;;;;;10181074;28;20497;-63
2023/09/04 12:04:31;;;;;;;4.13;2.50;;;;;;;;;;10181064;28;20044;-62
2023/09/04 12:09:23;;;;;;;4.05;2.97;;;;;;;;;;10166209;28;20101;-63
2023/09/04 12:14:16;;;;;;;4.20;2.53;;;;;;;;;;10202567;28;20431;-63
2023/09/04 12:19:09;;;;;;;8.20;2.75;;;;;;;;;;10195114;28;20059;-63
2023/09/04 12:24:01;;;;;;;3.60;3.30;;;;;;;;;;10178631;28;20048;-64
2023/09/04 12:28:53;;;;;;;4.47;3.60;;;;;;;;;;10179407;28;20056;-62
2023/09/04 12:33:45;;;;;;;4.43;2.83;;;;;;;;;;10163932;28;20052;-64
2023/09/04 12:38:37;;;;;;;7.07;2.63;;;;;;;;;;10182660;28;20048;-61
2023/09/04 12:43:30;;;;;;;3.50;3.08;;;;;;;;;;10202806;28;20123;-64
2023/09/04 12:48:22;;;;;;;7.28;2.40;;;;;;;;;;10202274;27;20509;-64
2023/09/04 12:53:15;;;;;;;15.80;3.90;;;;;;;;;;10193418;27;20080;-64
2023/09/04 12:58:10;;;;;;;9.85;2.58;;;;;;;;;;10197634;28;20474;-64
2023/09/04 13:03:02;;;;;;;4.55;2.80;;;;;;;;;;10217252;28;20056;-64
2023/09/04 13:07:54;;;;;;;3.95;2.40;;;;;;;;;;10186931;28;20051;-65
2023/09/04 13:12:46;;;;;;;5.28;2.75;;;;;;;;;;10195861;27;20069;-64
2023/09/04 13:17:41;;;;;;;2.83;2.28;;;;;;;;;;10187543;28;20405;-63
2023/09/04 13:22:33;;;;;;;4.93;2.75;;;;;;;;;;10203770;28;20534;-64
2023/09/04 13:27:25;;;;;;;4.35;3.17;;;;;;;;;;10186267;28;20628;-65
2023/09/04 13:32:17;;;;;;;4.95;2.50;;;;;;;;;;10223631;27;20041;-63
2023/09/04 13:37:08;;;;;;;4.10;2.95;;;;;;;;;;10219718;28;20093;-62
2023/09/04 13:42:00;;;;;;;14.70;3.67;;;;;;;;;;10189461;28;20489;-63
2023/09/04 13:46:52;;;;;;;5.70;2.88;;;;;;;;;;10184395;28;20083;-62
2023/09/04 13:51:44;;;;;;;2.33;2.13;;;;;;;;;;10204995;28;20051;-63
2023/09/04 13:56:36;;;;;;;4.30;2.75;;;;;;;;;;10220027;27;20040;-65
2023/09/04 14:01:28;;;;;;;4.05;2.53;;;;;;;;;;10146097;28;20106;-64
2023/09/04 14:06:20;;;;;;;5.68;2.78;;;;;;;;;;10145021;28;20045;-63
2023/09/04 14:11:12;;;;;;;3.25;2.38;;;;;;;;;;10143906;28;20053;-63
2023/09/04 14:16:05;;;;;;;3.38;2.00;;;;;;;;;;10146369;28;20070;-64
2023/09/04 14:21:00;;;;;;;3.75;2.40;;;;;;;;;;10146426;28;20064;-66
2023/09/04 14:25:52;;;;;;;7.90;2.47;;;;;;;;;;10139625;28;20183;-63
2023/09/04 14:30:44;;;;;;;6.80;2.55;;;;;;;;;;10140597;28;20047;-65
2023/09/04 14:35:37;;;;;;;14.63;3.00;;;;;;;;;;10116882;28;20053;-63
2023/09/04 14:40:33;;;;;;;7.78;2.42;;;;;;;;;;10117194;28;20041;-64
2023/09/04 14:45:30;;;;;;;2.80;2.15;;;;;;;;;;10106688;28;20037;-64
2023/09/04 14:50:22;;;;;;;5.30;2.47;;;;;;;;;;10132247;28;20355;-63
2023/09/04 14:55:14;;;;;;;6.05;2.22;;;;;;;;;;10144523;28;20045;-61
2023/09/04 15:00:07;;;;;;;4.13;2.33;;;;;;;;;;10183478;28;20139;-66
2023/09/04 15:04:59;;;;;;;4.68;2.60;;;;;;;;;;10218155;28;20039;-66
2023/09/04 15:09:51;;;;;;;4.28;2.13;;;;;;;;;;10208140;28;20050;-65
2023/09/04 15:14:43;;;;;;;3.15;2.40;;;;;;;;;;10213796;28;20066;-66
2023/09/04 15:19:35;;;;;;;6.28;2.03;;;;;;;;;;10223371;28;20126;-66
2023/09/04 15:24:26;;;;;;;4.40;2.05;;;;;;;;;;10200365;28;20419;-64
2023/09/04 15:29:18;;;;;;;3.33;2.42;;;;;;;;;;10205973;28;20044;-65
2023/09/04 15:34:10;;;;;;;4.43;2.05;;;;;;;;;;10221920;28;20437;-65
2023/09/04 15:39:02;;;;;;;7.25;2.95;;;;;;;;;;10220687;28;20063;-65
2023/09/04 15:43:54;;;;;;;3.35;2.03;;;;;;;;;;10218024;28;20073;-63
2023/09/04 15:48:46;;;;;;;5.80;1.90;;;;;;;;;;10201557;28;20048;-64
2023/09/04 15:53:38;;;;;;;4.82;2.88;;;;;;;;;;10218553;28;20048;-62
2023/09/04 15:58:30;;;;;;;4.47;2.17;;;;;;;;;;10219333;28;20079;-65
2023/09/04 16:03:22;;;;;;;4.65;2.05;;;;;;;;;;10196038;28;20145;-65
2023/09/04 16:08:14;;;;;;;3.38;2.17;;;;;;;;;;10160905;28;20043;-65
2023/09/04 16:13:14;;;;;;;4.55;2.55;;;;;;;;;;10181075;28;20044;-63
2023/09/04 16:18:06;;;;;;;2.97;2.03;;;;;;;;;;10189591;28;20052;-65
2023/09/04 16:22:59;;;;;;;4.40;2.25;;;;;;;;;;10189875;28;20523;-64
2023/09/04 16:27:51;;;;;;;5.38;1.80;;;;;;;;;;10188179;28;20044;-65
2023/09/04 16:32:43;;;;;;;3.35;2.10;;;;;;;;;;10189717;28;20043;-65
2023/09/04 16:37:35;;;;;;;4.47;2.60;;;;;;;;;;10190063;28;20478;-65
2023/09/04 16:42:28;;;;;;;4.07;2.30;;;;;;;;;;10188923;28;20048;-64
2023/09/04 16:47:22;;;;;;;3.35;2.35;;;;;;;;;;10188197;28;20399;-62
2023/09/04 16:52:14;;;;;;;5.60;2.13;;;;;;;;;;10188524;28;20075;-63
2023/09/04 16:57:06;;;;;;;8.18;3.60;;;;;;;;;;10187696;28;20159;-63
2023/09/04 17:01:58;;;;;;;3.85;2.42;;;;;;;;;;10187827;28;20048;-64
2023/09/04 17:06:50;;;;;;;6.75;2.40;;;;;;;;;;10188465;28;20374;-64
2023/09/04 17:11:42;;;;;;;4.65;2.38;;;;;;;;;;10186602;28;20101;-63
2023/09/04 17:16:34;;;;;;;4.15;3.30;;;;;;;;;;10186659;28;20119;-64
2023/09/04 17:21:26;;;;;;;5.45;2.88;;;;;;;;;;10187810;28;20055;-65
2023/09/04 17:26:18;;;;;;;3.38;2.58;;;;;;;;;;10185534;28;20040;-64
2023/09/04 17:31:10;;;;;;;5.63;2.42;;;;;;;;;;10185359;28;20040;-64
2023/09/04 17:36:03;;;;;;;6.00;3.42;;;;;;;;;;10188785;28;20040;-64
2023/09/04 17:40:55;;;;;;;3.75;2.67;;;;;;;;;;10187107;28;20083;-64
2023/09/04 17:45:48;;;;;;;3.83;2.78;;;;;;;;;;10194678;28;20377;-63
2023/09/04 17:50:42;;;;;;;7.22;3.22;;;;;;;;;;10185478;28;20075;-64
2023/09/04 17:55:34;;;;;;;8.23;2.92;;;;;;;;;;10209903;28;20183;-64
2023/09/04 18:00:26;;;;;;;4.45;3.13;;;;;;;;;;10222576;28;20055;-65
2023/09/04 18:05:18;;;;;;;4.32;2.70;;;;;;;;;;10186106;28;20052;-64
2023/09/04 18:10:10;;;;;;;3.65;2.40;;;;;;;;;;10185866;28;20056;-64
2023/09/04 18:15:02;;;;;;;3.40;2.60;;;;;;;;;;10185475;28;20108;-65
2023/09/04 18:19:54;;;;;;;7.80;3.33;;;;;;;;;;10195486;28;20043;-64
2023/09/04 18:24:48;;;;;;;3.97;2.80;;;;;;;;;;10194861;28;20058;-64
2023/09/04 18:29:40;;;;;;;4.43;2.35;;;;;;;;;;10204735;28;20063;-65
2023/09/04 18:34:32;;;;;;;6.68;2.65;;;;;;;;;;10215727;28;20048;-71
2023/09/04 18:39:24;;;;;;;3.20;2.90;;;;;;;;;;10210623;28;20044;-71
2023/09/04 18:44:16;;;;;;;4.53;3.00;;;;;;;;;;10223505;28;20059;-71
2023/09/04 18:49:08;;;;;;;3.65;2.85;;;;;;;;;;10201914;28;20083;-70
2023/09/04 18:54:00;;;;;;;7.35;2.83;;;;;;;;;;10214799;28;20043;-69
2023/09/04 18:58:52;;;;;;;4.32;3.33;;;;;;;;;;10216252;28;20047;-71
2023/09/04 19:03:44;;;;;;;8.10;2.95;;;;;;;;;;10225119;28;20096;-71
2023/09/04 19:08:36;;;;;;;4.20;2.90;;;;;;;;;;10226567;28;20048;-71
2023/09/04 19:13:27;;;;;;;3.40;2.70;;;;;;;;;;10223018;28;20075;-71
2023/09/04 19:18:19;;;;;;;6.88;3.22;;;;;;;;;;10201531;28;20484;-70
2023/09/04 19:23:11;;;;;;;6.25;3.20;;;;;;;;;;10184578;28;20048;-70
2023/09/04 19:28:04;;;;;;;5.43;3.00;;;;;;;;;;10188242;28;20075;-71
2023/09/04 19:32:57;;;;;;;4.90;3.20;;;;;;;;;;10197773;28;20547;-71
2023/09/04 19:37:49;;;;;;;3.90;2.40;;;;;;;;;;10202214;28;20045;-71
2023/09/04 19:42:42;;;;;;;3.30;3.00;;;;;;;;;;10205276;28;20047;-71
2023/09/04 19:47:34;;;;;;;4.88;3.42;;;;;;;;;;10211069;28;20446;-70
2023/09/04 19:52:26;;;;;;;3.53;2.95;;;;;;;;;;10225737;28;20048;-71
2023/09/04 19:57:18;;;;;;;7.05;3.33;;;;;;;;;;10197885;28;20131;-71
2023/09/04 20:02:10;;;;;;;4.80;2.67;;;;;;;;;;10185038;28;20457;-68
2023/09/04 20:07:03;;;;;;;3.70;3.15;;;;;;;;;;10196506;28;20105;-71
2023/09/04 20:11:58;;;;;;;3.47;2.92;;;;;;;;;;10202984;28;20052;-72
2023/09/04 20:16:50;;;;;;;3.70;2.80;;;;;;;;;;10213082;28;20043;-71
2023/09/04 20:21:42;;;;;;;5.65;3.08;;;;;;;;;;10224571;28;20557;-72
2023/09/04 20:26:39;;;;;;;3.63;2.90;;;;;;;;;;10216641;28;20059;-70
2023/09/04 20:31:40;;;;;;;9.38;3.47;;;;;;;;;;10201630;28;20036;-71
2023/09/04 20:36:32;;;;;;;5.53;2.88;;;;;;;;;;10214237;28;20040;-72
2023/09/04 20:41:23;;;;;;;4.32;3.25;;;;;;;;;;10184226;28;20048;-71
2023/09/04 20:46:17;;;;;;;3.53;2.97;;;;;;;;;;10197340;28;20044;-71
2023/09/04 20:51:09;;;;;;;4.57;2.97;;;;;;;;;;10186513;28;20806;-70
2023/09/04 20:56:03;;;;;;;4.85;3.22;;;;;;;;;;10225457;28;20530;-71
2023/09/04 21:00:55;;;;;;;3.90;3.22;;;;;;;;;;10191411;28;20083;-71
2023/09/04 21:05:46;;;;;;;5.32;2.97;;;;;;;;;;10191707;28;20040;-71
2023/09/04 23:25:08;;;;;;;2.70;2.50;;;;;;;;;;10233633;27;20047;-71
2023/09/04 23:30:06;;;;;;;2.67;2.47;;;;;;;;;;10223071;28;20051;-71
2023/09/04 23:35:16;;;;;;;3.40;3.08;;;;;;;;;;10223535;28;20040;-70
2023/09/04 23:45:19;;;;;;;3.45;2.28;;;;;;;;;;10225232;28;20473;-69
2023/09/04 23:50:16;;;;;;;2.50;2.25;;;;;;;;;;10226563;28;20092;-71
2023/09/04 23:55:14;;;;;;;2.83;2.38;;;;;;;;;;10225139;28;20040;-71
